Time;durP1;ratioP1;P1;durP2;ratioP2;P2;SDS_P1;SDS_P2;PMS_P1;PMS_P2;Temp;Humidity;BMP_temperature;BMP_pressure;BME280_temperature;BME280_humidity;BME280_pressure;Samples;Min_cycle;Max_cycle;Signal;HPM_P1;HPM_P2
2021/11/07 00:01:16;;;;;;;19.30;6.20;;;;;;;17.03;76.46;101442.84;5118801;27;20067;-91
2021/11/07 00:03:45;;;;;;;19.58;5.43;;;;;;;17.01;76.39;101444.63;5117410;27;20043;-90
2021/11/07 00:06:18;;;;;;;19.13;6.65;;;;;;;16.98;76.54;101440.19;5135879;27;20043;-87
2021/11/07 00:08:52;;;;;;;12.45;5.03;;;;;;;16.97;76.85;101437.53;5117719;27;20482;-83
2021/11/07 00:11:28;;;;;;;16.65;4.95;;;;;;;16.87;77.07;101438.41;5134361;27;20046;-82
2021/11/07 00:13:55;;;;;;;15.88;6.50;;;;;;;16.74;77.41;101438.38;5134986;27;20047;-82
2021/11/07 00:16:28;;;;;;;17.58;6.70;;;;;;;16.65;77.87;101441.06;5117419;27;20039;-86
2021/11/07 00:19:10;;;;;;;16.88;6.43;;;;;;;16.69;78.03;101437.50;5117844;27;20401;-87
2021/11/07 00:21:44;;;;;;;26.25;7.40;;;;;;;16.80;77.75;101436.63;5135091;27;20051;-87
2021/11/07 00:24:15;;;;;;;;;;;;;;;16.86;77.16;101436.63;5135991;27;20493;-89
2021/11/07 00:26:55;;;;;;;14.45;6.57;;;;;;;16.89;76.76;101431.28;5135077;27;19919;-89
2021/11/07 00:29:25;;;;;;;19.63;6.18;;;;;;;16.86;76.54;101433.97;5117356;27;20042;-87
2021/11/07 00:32:00;;;;;;;16.10;7.10;;;;;;;16.86;76.51;101434.88;5117552;27;20084;-87
2021/11/07 00:37:15;;;;;;;17.30;6.68;;;;;;;16.84;76.21;101431.28;5134880;27;20046;-87
2021/11/07 00:39:48;;;;;;;18.42;7.00;;;;;;;16.76;76.26;101442.84;5134729;27;20043;-86
2021/11/07 00:42:20;;;;;;;17.25;5.50;;;;;;;16.56;76.74;101440.09;5134966;27;20050;-86
2021/11/07 00:44:54;;;;;;;14.23;5.35;;;;;;;16.56;77.18;101441.00;5134749;27;20035;-86
2021/11/07 00:50:10;;;;;;;19.02;5.80;;;;;;;16.60;76.92;101439.28;5133599;27;20073;-85
2021/11/07 00:52:50;;;;;;;16.42;6.35;;;;;;;16.61;76.88;101438.34;5134595;27;20047;-84
2021/11/07 00:55:24;;;;;;;15.27;5.97;;;;;;;16.61;77.09;101441.91;5134571;27;20047;-79
2021/11/07 00:57:53;;;;;;;14.93;5.85;;;;;;;16.64;76.94;101438.38;5134882;27;20042;-83
2021/11/07 01:00:27;;;;;;;18.88;6.60;;;;;;;16.57;76.91;101437.44;5134814;27;20042;-82
2021/11/07 01:02:58;;;;;;;13.68;5.30;;;;;;;16.59;77.06;101429.47;5116465;27;20084;-82
2021/11/07 01:05:29;;;;;;;15.00;6.45;;;;;;;16.48;77.28;101431.19;5116681;27;20043;-82
2021/11/07 01:07:58;;;;;;;16.63;7.50;;;;;;;16.40;77.72;101436.53;5134345;27;20047;-81
2021/11/07 01:10:30;;;;;;;18.42;6.75;;;;;;;16.47;77.97;101434.78;5134334;27;20111;-81
2021/11/07 01:12:58;;;;;;;16.98;6.00;;;;;;;16.50;77.74;101437.44;5116013;27;20039;-78
2021/11/07 01:15:27;;;;;;;19.27;6.47;;;;;;;16.50;77.93;101429.44;5116753;27;20108;-81
2021/11/07 01:17:55;;;;;;;13.68;5.28;;;;;;;16.53;78.01;101433.00;5115701;27;20039;-80
2021/11/07 01:20:26;;;;;;;16.35;5.50;;;;;;;16.56;77.97;101424.09;5133650;27;20092;-81
2021/11/07 01:22:58;;;;;;;13.93;5.65;;;;;;;16.52;78.23;101430.34;5115939;27;20073;-80
2021/11/07 01:25:31;;;;;;;11.48;5.15;;;;;;;16.55;78.26;101433.88;5133834;27;20073;-83
2021/11/07 01:27:59;;;;;;;15.65;6.30;;;;;;;16.51;78.59;101425.88;5133396;27;20397;-79
2021/11/07 01:30:31;;;;;;;12.68;5.22;;;;;;;16.56;78.47;101427.66;5133541;27;20039;-80
2021/11/07 01:33:03;;;;;;;13.73;4.88;;;;;;;16.59;78.34;101430.34;5115262;27;20440;-80
2021/11/07 01:35:38;;;;;;;13.32;5.07;;;;;;;16.59;78.18;101426.78;5115839;27;20080;-79
2021/11/07 01:38:15;;;;;;;12.45;5.85;;;;;;;16.58;78.22;101428.56;5133620;27;20043;-82
2021/11/07 01:40:48;;;;;;;13.60;5.40;;;;;;;16.49;78.55;101431.19;5117488;27;20494;-81
2021/11/07 01:43:16;;;;;;;13.45;6.25;;;;;;;16.56;78.50;101424.09;5133893;27;20059;-81
2021/11/07 01:45:48;;;;;;;15.80;6.22;;;;;;;16.60;78.09;101426.84;5115079;27;20035;-80
2021/11/07 01:48:19;;;;;;;16.38;6.45;;;;;;;16.66;77.92;101421.50;5133154;27;20070;-79
2021/11/07 01:50:52;;;;;;;15.88;7.57;;;;;;;16.68;77.47;101429.47;5115393;27;20516;-87
2021/11/07 01:53:26;;;;;;;14.67;4.70;;;;;;;16.66;77.34;101425.94;5115482;27;20146;-86
2021/11/07 01:55:58;;;;;;;17.27;6.53;;;;;;;16.59;77.24;101427.69;5133945;27;20263;-87
2021/11/07 01:58:27;;;;;;;12.88;5.05;;;;;;;16.54;77.62;101424.09;5115518;27;20113;-84
2021/11/07 02:00:55;;;;;;;16.17;5.43;;;;;;;16.57;77.67;101431.22;5115645;27;20075;-87
2021/11/07 02:03:24;;;;;;;16.60;6.65;;;;;;;16.56;77.71;101424.09;5115958;27;20405;-86
2021/11/07 02:05:52;;;;;;;15.90;6.22;;;;;;;16.31;78.18;101416.06;5133124;27;20035;-85
2021/11/07 02:08:21;;;;;;;14.05;5.90;;;;;;;16.37;78.50;101417.84;5115403;27;20038;-87
2021/11/07 02:10:50;;;;;;;13.57;5.45;;;;;;;16.41;78.46;101419.63;5133412;27;20590;-87
2021/11/07 02:13:20;;;;;;;15.65;5.97;;;;;;;16.46;78.28;101428.56;5133252;27;20372;-88
2021/11/07 02:15:48;;;;;;;14.18;5.93;;;;;;;16.36;78.11;101416.06;5115514;27;20042;-87
2021/11/07 02:18:17;;;;;;;11.65;5.78;;;;;;;16.30;78.61;101422.28;5133036;27;20057;-86
2021/11/07 02:20:48;;;;;;;13.70;6.38;;;;;;;16.13;78.95;101417.78;5115137;27;20047;-87
2021/11/07 02:23:19;;;;;;;12.50;5.72;;;;;;;16.00;79.87;101429.28;5133265;27;20039;-85
2021/11/07 02:25:48;;;;;;;14.18;6.70;;;;;;;16.15;80.08;101424.00;5115243;28;20513;-87
2021/11/07 02:28:24;;;;;;;15.32;6.63;;;;;;;16.28;79.61;101429.38;5132944;28;20144;-82
2021/11/07 02:30:52;;;;;;;16.63;8.48;;;;;;;16.30;79.17;101421.38;5132843;28;20064;-83
2021/11/07 02:33:20;;;;;;;17.60;6.70;;;;;;;16.34;78.99;101425.84;5114703;27;20047;-81
2021/11/07 02:35:49;;;;;;;19.30;7.30;;;;;;;16.39;78.75;101418.75;5119381;27;20054;-82
2021/11/07 02:38:17;;;;;;;15.52;6.90;;;;;;;16.46;78.67;101428.56;5137089;27;20059;-82
2021/11/07 02:40:45;;;;;;;15.00;5.78;;;;;;;16.49;78.47;101420.53;5137264;27;20130;-83
2021/11/07 02:43:12;;;;;;;15.57;6.28;;;;;;;16.52;78.62;101425.91;5137240;27;20069;-82
2021/11/07 02:45:40;;;;;;;18.05;6.78;;;;;;;16.58;78.62;101422.34;5118756;27;20050;-82
2021/11/07 02:48:08;;;;;;;18.58;6.40;;;;;;;16.42;78.92;101424.06;5118841;27;20039;-82
2021/11/07 02:50:36;;;;;;;17.63;6.97;;;;;;;16.39;79.57;101426.75;5136855;27;20046;-82
2021/11/07 02:53:05;;;;;;;16.38;6.68;;;;;;;16.51;79.85;101434.78;5119169;27;20027;-82
2021/11/07 02:55:33;;;;;;;14.93;6.60;;;;;;;16.59;79.42;101424.13;5136837;27;20487;-80
2021/11/07 02:58:01;;;;;;;21.52;8.95;;;;;;;16.56;79.40;101430.34;5118773;27;20050;-82
2021/11/07 03:00:31;;;;;;;16.20;6.78;;;;;;;16.60;79.57;101424.16;5136716;27;20463;-81
2021/11/07 03:02:58;;;;;;;16.40;6.90;;;;;;;16.62;79.78;101418.81;5118690;27;20096;-80
2021/11/07 03:05:29;;;;;;;15.45;6.93;;;;;;;16.69;79.95;101423.28;5137432;27;20494;-83
2021/11/07 03:07:57;;;;;;;14.70;6.68;;;;;;;16.67;80.13;101423.25;5101824;27;20039;-81
2021/11/07 03:10:30;;;;;;;17.88;7.72;;;;;;;16.69;80.36;101431.28;5118285;27;20417;-81
2021/11/07 03:13:06;;;;;;;16.35;7.20;;;;;;;16.76;80.45;101433.06;5118375;27;20043;-75
2021/11/07 03:15:35;;;;;;;17.90;6.97;;;;;;;16.76;80.33;101430.38;5136319;27;20040;-82
2021/11/07 03:18:03;;;;;;;15.50;6.50;;;;;;;16.78;80.34;101422.41;5118206;27;20065;-83
2021/11/07 03:20:30;;;;;;;17.15;7.53;;;;;;;16.84;80.27;101425.97;5136576;27;20035;-83
2021/11/07 03:22:58;;;;;;;20.20;7.93;;;;;;;16.92;80.09;101425.97;5136593;27;20123;-70
2021/11/07 03:25:27;;;;;;;21.67;6.95;;;;;;;16.98;80.05;101428.63;5118985;27;20091;-84
2021/11/07 03:27:56;;;;;;;23.15;7.13;;;;;;;17.01;80.08;101428.63;5118786;27;20055;-85
2021/11/07 03:30:37;;;;;;;14.60;6.05;;;;;;;16.97;80.02;101432.19;5136370;27;20039;-83
2021/11/07 03:33:14;;;;;;;14.40;6.97;;;;;;;16.84;80.15;101436.63;5135624;27;20386;-84
2021/11/07 03:35:43;;;;;;;16.95;6.45;;;;;;;16.88;80.36;101441.06;5136350;27;20406;-84
2021/11/07 03:38:11;;;;;;;16.88;8.07;;;;;;;16.89;80.08;101441.97;5136157;27;20043;-84
2021/11/07 03:40:41;;;;;;;18.70;8.32;;;;;;;16.90;79.88;101444.63;5136001;27;20481;-84
2021/11/07 03:43:09;;;;;;;14.40;7.72;;;;;;;16.78;79.63;101446.41;5136015;27;20490;-84
2021/11/07 03:45:38;;;;;;;17.38;8.30;;;;;;;16.72;79.77;101452.63;5136102;27;20043;-82
2021/11/07 03:48:06;;;;;;;18.35;9.05;;;;;;;16.71;79.69;101453.50;5118094;27;20065;-81
2021/11/07 03:50:34;;;;;;;16.27;7.55;;;;;;;16.60;79.67;101450.84;5117764;27;20046;-82
2021/11/07 03:53:02;;;;;;;17.30;9.40;;;;;;;16.55;79.68;101455.19;5136102;27;20046;-87
2021/11/07 03:55:29;;;;;;;14.60;7.35;;;;;;;16.49;79.54;101451.63;5136163;27;20038;-84
2021/11/07 03:57:59;;;;;;;17.27;8.15;;;;;;;16.28;79.65;101445.34;5118512;27;20085;-85
2021/11/07 04:00:27;;;;;;;14.85;7.93;;;;;;;16.27;79.93;101448.03;5118439;27;20064;-86
2021/11/07 04:02:57;;;;;;;19.23;8.40;;;;;;;16.35;79.75;101454.25;5135612;27;20039;-85
2021/11/07 04:05:24;;;;;;;16.48;8.93;;;;;;;16.28;79.23;101453.34;5135861;27;20511;-85
2021/11/07 04:07:52;;;;;;;19.13;8.65;;;;;;;16.19;79.32;101461.31;5117808;27;20126;-83
2021/11/07 04:10:21;;;;;;;20.40;9.02;;;;;;;16.23;79.16;101451.56;5117064;27;20043;-80
2021/11/07 04:12:49;;;;;;;20.40;9.80;;;;;;;16.26;78.99;101455.13;5134993;27;22535;-80
2021/11/07 04:15:18;;;;;;;20.90;9.38;;;;;;;16.26;78.74;101455.13;5134940;27;20035;-80
2021/11/07 04:17:46;;;;;;;18.42;7.97;;;;;;;16.21;78.61;101464.00;5117009;27;20535;-80
2021/11/07 04:20:14;;;;;;;20.05;10.25;;;;;;;16.15;78.74;101463.94;5116869;27;20035;-79
2021/11/07 04:22:42;;;;;;;16.15;8.50;;;;;;;16.13;78.87;101465.75;5134780;27;20108;-81
2021/11/07 04:25:11;;;;;;;18.20;9.90;;;;;;;15.97;79.07;101470.09;5116719;27;20035;-79
2021/11/07 04:27:39;;;;;;;22.63;9.60;;;;;;;15.80;79.53;101466.47;5134160;27;20050;-80
2021/11/07 04:30:08;;;;;;;22.17;10.35;;;;;;;15.80;80.03;101471.78;5134099;27;20467;-79
2021/11/07 04:32:37;;;;;;;23.48;10.38;;;;;;;15.87;80.13;101473.59;5134428;27;20050;-79
2021/11/07 04:35:07;;;;;;;24.10;10.15;;;;;;;15.98;80.04;101471.88;5134649;27;20087;-79
2021/11/07 04:37:37;;;;;;;22.95;9.70;;;;;;;16.02;79.77;101473.66;5134519;27;20046;-79
2021/11/07 04:40:06;;;;;;;24.48;10.15;;;;;;;16.03;79.67;101478.13;5134424;27;20054;-78
2021/11/07 04:42:34;;;;;;;22.15;10.30;;;;;;;16.11;79.90;101480.81;5134219;27;20100;-79
2021/11/07 04:45:01;;;;;;;19.13;9.02;;;;;;;16.18;79.71;101474.63;5116385;27;20042;-78
2021/11/07 04:47:29;;;;;;;24.58;10.05;;;;;;;16.14;79.83;101479.06;5116866;27;20043;-79
2021/11/07 04:49:58;;;;;;;15.88;8.40;;;;;;;16.21;79.87;101485.31;5134277;27;20427;-78
2021/11/07 04:52:26;;;;;;;17.60;8.57;;;;;;;16.21;79.98;101483.50;5133988;27;20051;-79
2021/11/07 04:54:53;;;;;;;21.67;9.75;;;;;;;16.26;80.24;101478.22;5133994;27;20095;-79
2021/11/07 04:57:21;;;;;;;22.30;9.65;;;;;;;16.32;80.24;101478.25;5133055;27;20490;-80
2021/11/07 04:59:49;;;;;;;21.30;9.32;;;;;;;16.40;80.51;101480.94;5115878;27;20038;-78
2021/11/07 05:02:16;;;;;;;19.15;8.57;;;;;;;16.43;80.16;101484.50;5134095;27;20464;-78
2021/11/07 05:04:44;;;;;;;17.77;8.60;;;;;;;16.40;79.83;101484.50;5133894;27;20126;-79
2021/11/07 05:07:14;;;;;;;22.55;8.40;;;;;;;16.30;79.84;101491.56;5133893;27;20398;-80
2021/11/07 05:09:41;;;;;;;17.35;7.35;;;;;;;16.28;80.06;101485.31;5133958;27;20471;-79
2021/11/07 05:12:10;;;;;;;22.27;8.45;;;;;;;16.26;79.93;101483.56;5115666;27;20038;-78
2021/11/07 05:14:38;;;;;;;17.83;8.73;;;;;;;16.29;79.92;101489.78;5133733;27;20047;-80
2021/11/07 05:17:05;;;;;;;18.02;8.55;;;;;;;16.31;79.75;101488.00;5133368;27;20088;-78
2021/11/07 05:19:36;;;;;;;18.65;9.65;;;;;;;16.24;79.85;101494.19;5133509;27;20035;-79
2021/11/07 05:22:04;;;;;;;18.33;9.50;;;;;;;16.30;80.07;101496.00;5133756;27;20067;-79
2021/11/07 05:24:34;;;;;;;17.85;8.95;;;;;;;16.37;80.24;101500.47;5133293;27;20537;-79
2021/11/07 05:27:01;;;;;;;22.83;9.60;;;;;;;16.40;80.52;101510.25;5115257;27;20043;-79
2021/11/07 05:29:29;;;;;;;19.27;8.93;;;;;;;16.46;80.97;101507.63;5115637;27;20035;-79
2021/11/07 05:31:59;;;;;;;20.00;9.40;;;;;;;16.52;81.19;101512.97;5115065;27;20379;-78
2021/11/07 05:34:27;;;;;;;25.88;10.15;;;;;;;16.56;81.49;101509.41;5133782;27;20043;-80
2021/11/07 05:36:55;;;;;;;14.40;8.20;;;;;;;16.65;81.96;101509.47;5133622;27;20043;-79
2021/11/07 05:39:24;;;;;;;18.90;8.93;;;;;;;16.71;81.98;101523.72;5133418;27;20030;-79
2021/11/07 05:41:54;;;;;;;21.65;8.80;;;;;;;16.78;82.00;101523.72;5133202;27;20095;-79
2021/11/07 05:44:21;;;;;;;21.90;9.30;;;;;;;16.82;82.26;101526.41;5114729;27;20042;-78
2021/11/07 05:46:49;;;;;;;23.65;10.07;;;;;;;16.83;82.21;101527.28;5133130;27;20483;-78
2021/11/07 05:49:17;;;;;;;23.45;11.25;;;;;;;16.90;82.53;101521.97;5115138;27;20126;-79
2021/11/07 05:51:45;;;;;;;21.52;11.10;;;;;;;16.96;82.71;101524.66;5132759;27;20050;-78
2021/11/07 05:54:12;;;;;;;19.00;10.18;;;;;;;17.05;82.86;101530.03;5133132;27;20035;-78
2021/11/07 05:56:40;;;;;;;20.15;9.13;;;;;;;17.14;83.08;101531.78;5132616;27;20538;-78
2021/11/07 05:59:09;;;;;;;17.30;8.90;;;;;;;17.26;83.15;101528.25;5114439;27;20035;-78
2021/11/07 06:01:37;;;;;;;20.52;11.07;;;;;;;17.31;83.34;101535.38;5114737;27;20047;-78
2021/11/07 06:04:06;;;;;;;25.10;12.30;;;;;;;17.41;83.62;101531.81;5114749;27;20046;-77
2021/11/07 06:06:34;;;;;;;19.40;9.90;;;;;;;17.46;83.79;101534.47;5132733;27;20066;-79
2021/11/07 06:09:02;;;;;;;18.35;10.50;;;;;;;17.57;83.84;101540.72;5113333;27;20050;-78
2021/11/07 06:11:30;;;;;;;15.45;9.70;;;;;;;17.61;84.07;101539.84;5114869;27;20047;-76
2021/11/07 06:13:57;;;;;;;25.88;11.30;;;;;;;17.64;84.27;101541.63;5132172;27;20555;-77
2021/11/07 06:16:26;;;;;;;17.83;10.35;;;;;;;17.75;84.34;101534.50;5132224;27;20130;-78
2021/11/07 06:18:54;;;;;;;16.38;10.65;;;;;;;17.87;84.64;101545.16;5131110;27;20047;-78
2021/11/07 06:21:22;;;;;;;20.42;11.07;;;;;;;17.96;84.55;101547.81;5114614;27;20043;-78
2021/11/07 06:23:50;;;;;;;18.42;11.35;;;;;;;18.04;84.23;101546.03;5132573;27;20120;-78
2021/11/07 06:26:17;;;;;;;21.92;12.30;;;;;;;18.14;84.24;101546.88;5132092;27;20035;-77
2021/11/07 06:28:45;;;;;;;18.38;11.35;;;;;;;18.24;84.47;101543.28;5132185;28;20047;-79
2021/11/07 06:31:13;;;;;;;18.58;11.98;;;;;;;18.33;84.49;101546.81;5132153;28;20084;-78
2021/11/07 06:33:42;;;;;;;21.98;11.80;;;;;;;18.44;84.37;101551.25;5132383;28;20474;-78
2021/11/07 06:36:10;;;;;;;18.48;11.38;;;;;;;18.53;84.53;101551.19;5114378;28;20054;-78
2021/11/07 06:38:38;;;;;;;20.45;11.10;;;;;;;18.65;84.85;101545.81;5114136;28;20043;-79
2021/11/07 06:41:06;;;;;;;18.67;11.13;;;;;;;18.75;85.00;101544.88;5114213;28;20129;-78
2021/11/07 06:43:33;;;;;;;22.73;11.13;;;;;;;18.85;85.46;101551.06;5132399;28;20035;-78
2021/11/07 06:46:01;;;;;;;17.85;11.68;;;;;;;19.02;85.87;101550.06;5114171;28;20059;-75
2021/11/07 06:48:29;;;;;;;22.15;10.15;;;;;;;19.16;86.14;101539.28;5132886;28;20043;-78
2021/11/07 06:50:59;;;;;;;19.50;9.85;;;;;;;19.35;86.54;101550.72;5127585;28;20048;-78
2021/11/07 06:53:27;;;;;;;20.92;10.18;;;;;;;19.62;86.57;101550.53;5111090;28;20040;-79
2021/11/07 06:55:55;;;;;;;21.00;9.02;;;;;;;19.81;87.30;101545.91;5093489;28;20387;-79
2021/11/07 06:58:23;;;;;;;18.85;8.88;;;;;;;19.98;87.26;101548.38;5093487;28;20089;-79
2021/11/07 07:00:51;;;;;;;18.20;9.27;;;;;;;20.13;87.19;101548.25;5111670;28;20056;-79
2021/11/07 07:03:19;;;;;;;17.13;9.68;;;;;;;20.26;87.02;101549.88;5111738;28;20517;-79
2021/11/07 07:05:47;;;;;;;27.77;15.95;;;;;;;20.37;86.37;101537.25;5111880;28;20506;-80
2021/11/07 07:08:19;;;;;;;23.60;13.88;;;;;;;20.44;86.08;101546.09;5093845;28;20032;-79
2021/11/07 07:11:05;;;;;;;24.60;14.40;;;;;;;20.51;85.52;101550.50;5093725;28;20044;-79
2021/11/07 07:13:36;;;;;;;25.83;15.88;;;;;;;20.56;84.80;101543.25;5110971;28;20131;-78
2021/11/07 07:16:13;;;;;;;24.52;13.85;;;;;;;20.63;84.72;101547.66;5111702;28;20043;-79
2021/11/07 07:18:52;;;;;;;23.35;8.65;;;;;;;20.68;84.31;101541.31;5093338;28;20042;-79
2021/11/07 07:21:30;;;;;;;20.40;9.80;;;;;;;20.71;83.88;101550.22;5114573;28;20095;-78
2021/11/07 07:29:49;;;;;;;20.25;9.70;;;;;;;20.92;83.29;101541.88;5113689;28;20042;-76
2021/11/07 07:32:38;;;;;;;17.63;8.75;;;;;;;21.02;82.49;101544.41;5114564;28;20498;-77
2021/11/07 07:35:07;;;;;;;20.75;8.63;;;;;;;21.11;81.82;101542.50;5090266;28;20109;-76
2021/11/07 07:37:34;;;;;;;19.10;9.38;;;;;;;21.19;80.90;101540.63;5093062;28;20040;-78
2021/11/07 07:40:05;;;;;;;14.88;7.72;;;;;;;21.26;80.48;101548.56;5094322;28;20101;-77
2021/11/07 07:42:33;;;;;;;16.55;7.20;;;;;;;21.28;79.37;101548.53;5094657;28;20047;-78
2021/11/07 07:45:01;;;;;;;17.63;8.10;;;;;;;21.31;78.64;101546.69;5094707;28;20051;-74
2021/11/07 07:47:30;;;;;;;17.50;7.43;;;;;;;21.37;78.10;101545.69;5095020;28;20503;-79
2021/11/07 07:49:57;;;;;;;15.13;7.68;;;;;;;21.42;77.46;101541.13;5094551;28;20047;-78
2021/11/07 07:52:27;;;;;;;20.65;7.95;;;;;;;21.52;77.12;101544.56;5093020;28;20040;-80
2021/11/07 07:54:54;;;;;;;19.88;7.40;;;;;;;21.65;76.72;101547.03;5094485;28;20063;-77
2021/11/07 07:57:24;;;;;;;11.38;6.57;;;;;;;21.73;76.06;101546.84;5094322;28;20032;-77
2021/11/07 07:59:52;;;;;;;17.27;7.00;;;;;;;21.77;76.04;101541.41;5094385;28;20056;-76
2021/11/07 08:02:20;;;;;;;15.23;7.18;;;;;;;21.79;75.46;101544.09;5073166;28;20423;-77
2021/11/07 08:04:49;;;;;;;18.67;7.32;;;;;;;21.80;75.23;101544.03;5093790;28;20047;-76
2021/11/07 08:07:16;;;;;;;19.02;6.82;;;;;;;21.99;75.27;101533.84;5076118;28;20032;-77
2021/11/07 08:09:44;;;;;;;19.98;7.22;;;;;;;22.41;76.08;101533.94;5094045;28;20453;-80
2021/11/07 08:12:12;;;;;;;15.77;6.63;;;;;;;22.96;75.52;101539.94;5093942;28;20400;-77
2021/11/07 08:14:41;;;;;;;16.08;6.38;;;;;;;23.46;75.17;101529.72;5093904;28;20063;-78
2021/11/07 08:17:09;;;;;;;14.30;5.85;;;;;;;23.83;73.77;101532.38;5076162;28;20043;-83
2021/11/07 08:19:36;;;;;;;15.65;6.78;;;;;;;24.07;71.35;101529.03;5110534;28;20075;-85
2021/11/07 08:22:05;;;;;;;15.13;5.55;;;;;;;24.37;67.73;101523.69;5094418;28;20043;-82
2021/11/07 08:24:33;;;;;;;12.68;5.65;;;;;;;24.61;66.08;101529.25;5094258;28;20044;-81
2021/11/07 08:27:01;;;;;;;14.82;5.78;;;;;;;24.92;65.28;101525.66;5076896;28;20082;-85
2021/11/07 08:29:29;;;;;;;9.98;4.95;;;;;;;25.19;63.12;101527.47;5096868;28;20040;-85
2021/11/07 08:31:59;;;;;;;12.82;5.43;;;;;;;25.30;61.84;101530.69;5092310;28;20047;-86
2021/11/07 08:34:29;;;;;;;15.27;7.03;;;;;;;25.49;61.96;101521.97;5093141;28;20078;-85
2021/11/07 08:36:59;;;;;;;14.18;5.40;;;;;;;25.59;62.45;101520.78;5094153;28;20039;-87
2021/11/07 08:39:30;;;;;;;11.68;5.63;;;;;;;25.66;61.91;101516.91;5098705;28;20102;-83
2021/11/07 08:42:00;;;;;;;13.80;6.15;;;;;;;25.89;59.56;101518.78;5097478;28;20050;-83
2021/11/07 09:01:08;;;;;;;13.90;4.80;;;;;;;26.04;57.54;101496.59;5101801;28;20055;-81
2021/11/07 09:03:45;;;;;;;9.68;5.15;;;;;;;25.80;57.54;101496.53;5093578;28;20048;-85
2021/11/07 09:06:24;;;;;;;13.68;5.25;;;;;;;25.69;57.98;101484.34;5092053;28;20038;-82
2021/11/07 09:08:52;;;;;;;19.98;8.20;;;;;;;25.82;57.91;101485.66;5093318;28;20047;-83
2021/11/07 09:11:20;;;;;;;14.50;5.25;;;;;;;25.94;57.54;101492.44;5093547;28;20040;-84
2021/11/07 09:13:49;;;;;;;14.75;6.32;;;;;;;25.93;56.71;101482.59;5112826;28;20437;-87
2021/11/07 09:16:16;;;;;;;11.60;5.30;;;;;;;25.92;56.78;101479.00;5113994;28;20040;-90
2021/11/07 09:18:47;;;;;;;13.30;5.57;;;;;;;25.99;56.74;101468.81;5095783;28;20039;-86
2021/11/07 09:21:20;;;;;;;21.25;5.95;;;;;;;26.08;55.56;101468.47;5095886;28;20036;-87
2021/11/07 09:23:51;;;;;;;10.48;5.32;;;;;;;26.03;55.26;101468.66;5113937;28;20054;-84
2021/11/07 09:29:03;;;;;;;17.30;5.93;;;;;;;26.15;56.17;101465.47;5113834;28;20088;-85
2021/11/07 09:31:45;;;;;;;13.05;5.95;;;;;;;26.34;56.11;101451.25;5113823;28;20047;-84
2021/11/07 09:34:23;;;;;;;13.80;5.53;;;;;;;26.36;55.96;101465.63;5111575;28;20046;-82
2021/11/07 09:36:58;;;;;;;16.80;5.60;;;;;;;26.26;55.95;101466.91;5094470;28;20047;-82
2021/11/07 09:39:33;;;;;;;13.55;6.10;;;;;;;26.12;55.80;101456.59;5113010;28;20031;-86
2021/11/07 09:42:25;;;;;;;11.07;5.10;;;;;;;26.16;55.36;101458.25;5113163;28;20135;-85
2021/11/07 09:44:58;;;;;;;12.02;5.97;;;;;;;26.23;55.58;101464.31;5081400;28;20097;-86
2021/11/07 09:47:28;;;;;;;12.05;5.35;;;;;;;26.47;55.49;101450.72;5113194;28;20390;-86
2021/11/07 09:49:58;;;;;;;14.80;5.75;;;;;;;26.69;54.45;101458.00;5112760;28;20040;-84
2021/11/07 09:52:30;;;;;;;12.10;5.32;;;;;;;26.63;54.41;101456.44;5128549;27;20084;-85
2021/11/07 09:55:00;;;;;;;15.15;5.40;;;;;;;26.75;54.52;101460.47;5115349;27;20039;-85
2021/11/07 09:57:29;;;;;;;14.25;4.60;;;;;;;26.70;53.89;101457.06;5132465;27;20043;-85
2021/11/07 10:00:01;;;;;;;13.02;6.07;;;;;;;26.82;54.09;101448.44;5133416;27;20363;-84
2021/11/07 10:02:40;;;;;;;16.15;6.00;;;;;;;27.02;53.86;101445.84;5132701;27;20510;-82
2021/11/07 10:05:11;;;;;;;12.43;5.70;;;;;;;27.07;52.99;101443.81;5121505;27;20088;-86
2021/11/07 10:07:41;;;;;;;15.05;5.43;;;;;;;27.09;52.67;101438.31;5132811;27;20069;-86
2021/11/07 10:10:14;;;;;;;14.73;6.78;;;;;;;26.93;52.47;101422.69;5133036;27;20086;-88
2021/11/07 10:12:44;;;;;;;18.17;5.75;;;;;;;26.85;53.01;101422.09;5133595;27;20155;-86
2021/11/07 10:15:22;;;;;;;13.80;5.43;;;;;;;26.91;52.75;101421.88;5115089;27;20483;-86
2021/11/07 10:17:53;;;;;;;14.85;6.18;;;;;;;26.81;53.16;101416.88;5133302;27;20046;-86
2021/11/07 10:20:27;;;;;;;17.27;6.30;;;;;;;26.85;53.44;101413.97;5115075;27;20041;-91
2021/11/07 10:22:59;;;;;;;13.52;6.03;;;;;;;26.87;53.26;101413.91;5115115;27;20364;-88
2021/11/07 10:25:35;;;;;;;17.77;6.93;;;;;;;26.76;53.12;101411.66;5114718;28;20065;-86
2021/11/07 10:28:15;;;;;;;13.07;5.70;;;;;;;26.75;53.40;101409.88;5112309;28;20491;-84
2021/11/07 10:30:47;;;;;;;15.48;5.43;;;;;;;26.74;53.84;101402.69;5110029;28;20092;-89
2021/11/07 10:33:26;;;;;;;14.80;6.10;;;;;;;26.80;53.69;101399.72;5131961;28;20551;-87
2021/11/07 10:42:05;;;;;;;16.92;5.70;;;;;;;26.61;53.73;101393.28;5114219;28;20039;-86
2021/11/07 10:53:13;;;;;;;14.90;6.88;;;;;;;26.15;54.74;101376.13;5130970;28;20043;-79
2021/11/07 10:55:44;;;;;;;14.68;6.38;;;;;;;25.90;54.88;101375.31;5126718;27;20090;-82
2021/11/07 10:58:11;;;;;;;10.68;6.70;;;;;;;25.69;55.07;101379.72;5119000;27;20039;-85
2021/11/07 11:00:41;;;;;;;13.43;6.70;;;;;;;25.55;55.50;101370.31;5136210;27;20043;-85
2021/11/07 11:03:11;;;;;;;23.33;7.10;;;;;;;25.55;55.93;101373.88;5135950;27;20462;-90
2021/11/07 11:05:43;;;;;;;21.50;7.85;;;;;;;25.52;56.71;101371.31;5136703;27;20047;-91
2021/11/07 11:08:16;;;;;;;19.48;7.53;;;;;;;25.46;56.60;101370.66;5137567;27;20046;-89
2021/11/07 11:13:42;;;;;;;17.33;6.78;;;;;;;25.29;57.10;101369.44;5136719;27;20054;-89
2021/11/07 11:28:04;;;;;;;14.80;6.88;;;;;;;25.00;58.49;101356.06;5136128;27;20043;-85
2021/11/07 11:33:27;;;;;;;15.65;7.18;;;;;;;24.83;58.53;101347.59;5117766;27;20047;-83
2021/11/07 11:36:02;;;;;;;15.35;7.03;;;;;;;24.78;58.86;101341.47;5135817;27;20433;-82
2021/11/07 11:38:34;;;;;;;21.20;7.68;;;;;;;24.73;59.28;101348.84;5136136;27;20092;-85
2021/11/07 11:41:09;;;;;;;13.65;7.22;;;;;;;24.76;59.34;101341.53;5100822;27;20082;-88
2021/11/07 11:43:39;;;;;;;17.77;6.38;;;;;;;24.72;59.71;101344.38;5136040;27;20067;-87
2021/11/07 11:46:16;;;;;;;19.05;7.35;;;;;;;24.65;59.28;101342.81;5117862;27;20035;-87
2021/11/07 11:49:11;;;;;;;16.63;7.20;;;;;;;24.60;59.77;101341.16;5136199;27;20051;-85
2021/11/07 11:51:49;;;;;;;18.25;7.88;;;;;;;24.55;59.85;101343.13;5135284;27;20443;-85
2021/11/07 11:57:39;;;;;;;17.98;7.25;;;;;;;24.50;60.14;101333.41;5087132;27;20043;-84
2021/11/07 12:00:37;;;;;;;16.60;7.10;;;;;;;24.53;59.91;101336.03;5135647;27;20425;-85
2021/11/07 12:03:11;;;;;;;16.33;8.18;;;;;;;24.41;59.93;101331.91;5135770;27;20046;-85
2021/11/07 12:05:43;;;;;;;19.73;8.38;;;;;;;24.40;60.09;101331.94;5106899;27;20042;-83
2021/11/07 12:08:22;;;;;;;20.35;8.52;;;;;;;24.45;59.89;101328.16;5134734;27;20043;-84
2021/11/07 12:10:58;;;;;;;16.10;8.82;;;;;;;24.49;60.02;101335.22;5136029;27;20130;-85
2021/11/07 12:13:37;;;;;;;17.63;8.60;;;;;;;24.51;60.30;101335.19;5119149;27;20478;-85
2021/11/07 12:16:11;;;;;;;20.17;9.35;;;;;;;24.42;60.10;101336.34;5133504;27;20379;-84
2021/11/07 12:19:04;;;;;;;;;;;;;;;24.33;60.41;101339.38;5136677;27;20046;-84
2021/11/07 12:22:04;;;;;;;22.20;10.50;;;;;;;24.28;60.63;101329.66;5118288;27;19927;-85
2021/11/07 12:24:34;;;;;;;22.20;11.85;;;;;;;24.23;60.74;101324.38;5117663;27;20544;-81
2021/11/07 12:27:24;;;;;;;23.27;12.57;;;;;;;24.19;60.86;101320.91;5134588;27;20070;-81
2021/11/07 12:29:57;;;;;;;24.48;11.30;;;;;;;24.15;60.98;101323.72;5136282;27;20046;-83
2021/11/07 12:32:37;;;;;;;24.13;10.95;;;;;;;24.11;61.29;101324.75;5111228;27;20064;-83
2021/11/07 12:35:11;;;;;;;25.25;11.30;;;;;;;24.11;61.00;101325.63;5135253;27;20122;-79
2021/11/07 12:40:37;;;;;;;27.20;11.70;;;;;;;24.11;61.03;101327.44;5136109;27;20045;-83
2021/11/07 12:43:06;;;;;;;21.90;11.07;;;;;;;24.12;61.25;101313.91;5135170;27;20047;-83